sensor_id;sensor_type;location;lat;lon;timestamp;pressure;altitude;pressure_sealevel;temperature;humidity
42591;BME280;28218;53.342;-6.216;2024-02-14T00:00:08;100011.03;;;9.53;100.00
42591;BME280;28218;53.342;-6.216;2024-02-14T00:02:42;100010.69;;;9.56;100.00
42591;BME280;28218;53.342;-6.216;2024-02-14T00:05:11;100013.31;;;9.56;100.00
42591;BME280;28218;53.342;-6.216;2024-02-14T00:07:40;100006.22;;;9.57;100.00
42591;BME280;28218;53.342;-6.216;2024-02-14T00:10:08;100002.78;;;9.56;100.00
42591;BME280;28218;53.342;-6.216;2024-02-14T00:12:37;100000.97;;;9.57;100.00
42591;BME280;28218;53.342;-6.216;2024-02-14T00:15:06;99993.91;;;9.57;100.00
42591;BME280;28218;53.342;-6.216;2024-02-14T00:17:35;99993.91;;;9.57;100.00
42591;BME280;28218;53.342;-6.216;2024-02-14T00:20:06;99992.72;;;9.60;100.00
42591;BME280;28218;53.342;-6.216;2024-02-14T00:22:37;99995.38;;;9.60;100.00
42591;BME280;28218;53.342;-6.216;2024-02-14T00:25:06;99986.47;;;9.61;100.00
42591;BME280;28218;53.342;-6.216;2024-02-14T00:27:36;99982.03;;;9.61;100.00
42591;BME280;28218;53.342;-6.216;2024-02-14T00:30:05;99987.09;;;9.63;100.00
42591;BME280;28218;53.342;-6.216;2024-02-14T00:32:34;99982.03;;;9.61;100.00
42591;BME280;28218;53.342;-6.216;2024-02-14T00:35:05;99988.09;;;9.62;100.00
42591;BME280;28218;53.342;-6.216;2024-02-14T00:37:33;99979.41;;;9.61;100.00
42591;BME280;28218;53.342;-6.216;2024-02-14T00:40:01;99988.09;;;9.62;100.00
42591;BME280;28218;53.342;-6.216;2024-02-14T00:42:30;99982.84;;;9.62;100.00
42591;BME280;28218;53.342;-6.216;2024-02-14T00:44:58;99982.84;;;9.62;100.00
42591;BME280;28218;53.342;-6.216;2024-02-14T00:47:26;99982.84;;;9.62;100.00
42591;BME280;28218;53.342;-6.216;2024-02-14T00:49:55;99974.94;;;9.62;100.00
42591;BME280;28218;53.342;-6.216;2024-02-14T00:52:25;99976.09;;;9.59;100.00
42591;BME280;28218;53.342;-6.216;2024-02-14T00:54:53;99976.50;;;9.56;100.00
42591;BME280;28218;53.342;-6.216;2024-02-14T00:57:22;99978.47;;;9.54;100.00
42591;BME280;28218;53.342;-6.216;2024-02-14T00:59:52;99976.03;;;9.53;100.00
42591;BME280;28218;53.342;-6.216;2024-02-14T01:02:23;99982.28;;;9.52;100.00
42591;BME280;28218;53.342;-6.216;2024-02-14T01:04:53;99982.28;;;9.52;100.00
42591;BME280;28218;53.342;-6.216;2024-02-14T01:07:21;99984.09;;;9.51;100.00
42591;BME280;28218;53.342;-6.216;2024-02-14T01:09:51;99981.28;;;9.53;100.00
42591;BME280;28218;53.342;-6.216;2024-02-14T01:12:20;99985.53;;;9.54;100.00
42591;BME280;28218;53.342;-6.216;2024-02-14T01:14:48;99979.47;;;9.53;100.00
42591;BME280;28218;53.342;-6.216;2024-02-14T01:17:17;99978.66;;;9.53;100.00
42591;BME280;28218;53.342;-6.216;2024-02-14T01:19:45;99975.41;;;9.51;100.00
42591;BME280;28218;53.342;-6.216;2024-02-14T01:22:14;99977.38;;;9.48;100.00
42591;BME280;28218;53.342;-6.216;2024-02-14T01:24:43;99982.81;;;9.47;100.00
42591;BME280;28218;53.342;-6.216;2024-02-14T01:27:13;99978.56;;;9.46;100.00
42591;BME280;28218;53.342;-6.216;2024-02-14T01:29:42;99981.34;;;9.44;100.00
42591;BME280;28218;53.342;-6.216;2024-02-14T01:32:10;99982.16;;;9.45;100.00
42591;BME280;28218;53.342;-6.216;2024-02-14T01:34:39;99990.72;;;9.47;100.00
42591;BME280;28218;53.342;-6.216;2024-02-14T01:37:08;99981.19;;;9.46;100.00
42591;BME280;28218;53.342;-6.216;2024-02-14T01:39:36;99979.53;;;9.45;100.00
42591;BME280;28218;53.342;-6.216;2024-02-14T01:42:05;99978.91;;;9.43;100.00
42591;BME280;28218;53.342;-6.216;2024-02-14T01:44:36;99966.75;;;9.42;100.00
42591;BME280;28218;53.342;-6.216;2024-02-14T01:47:04;99979.72;;;9.43;100.00
42591;BME280;28218;53.342;-6.216;2024-02-14T01:49:33;99970.84;;;9.44;100.00
42591;BME280;28218;53.342;-6.216;2024-02-14T01:52:04;99973.94;;;9.48;100.00
42591;BME280;28218;53.342;-6.216;2024-02-14T01:54:33;99981.47;;;9.51;100.00
42591;BME280;28218;53.342;-6.216;2024-02-14T01:57:02;99978.66;;;9.53;100.00
42591;BME280;28218;53.342;-6.216;2024-02-14T01:59:32;99988.00;;;9.55;100.00
42591;BME280;28218;53.342;-6.216;2024-02-14T02:02:03;99989.25;;;9.59;100.00
42591;BME280;28218;53.342;-6.216;2024-02-14T02:04:34;99993.34;;;9.62;100.00
42591;BME280;28218;53.342;-6.216;2024-02-14T02:07:03;99993.16;;;9.63;100.00
42591;BME280;28218;53.342;-6.216;2024-02-14T02:09:31;100007.78;;;9.66;100.00
42591;BME280;28218;53.342;-6.216;2024-02-14T02:11:59;100004.78;;;9.69;100.00
42591;BME280;28218;53.342;-6.216;2024-02-14T02:14:28;100008.06;;;9.71;100.00
42591;BME280;28218;53.342;-6.216;2024-02-14T02:16:57;100010.34;;;9.74;100.00
42591;BME280;28218;53.342;-6.216;2024-02-14T02:19:26;100015.22;;;9.77;100.00
42591;BME280;28218;53.342;-6.216;2024-02-14T02:21:56;100023.78;;;9.79;100.00
42591;BME280;28218;53.342;-6.216;2024-02-14T02:24:26;100017.13;;;9.83;100.00
42591;BME280;28218;53.342;-6.216;2024-02-14T02:26:54;100018.78;;;9.84;100.00
42591;BME280;28218;53.342;-6.216;2024-02-14T02:29:23;100020.41;;;9.85;100.00
42591;BME280;28218;53.342;-6.216;2024-02-14T02:31:51;100016.78;;;9.86;100.00
42591;BME280;28218;53.342;-6.216;2024-02-14T02:34:20;100014.50;;;9.83;100.00
42591;BME280;28218;53.342;-6.216;2024-02-14T02:36:48;100019.75;;;9.83;100.00
42591;BME280;28218;53.342;-6.216;2024-02-14T02:39:17;100018.94;;;9.83;100.00
42591;BME280;28218;53.342;-6.216;2024-02-14T02:41:47;100016.97;;;9.85;100.00
42591;BME280;28218;53.342;-6.216;2024-02-14T02:44:17;100011.53;;;9.86;100.00
42591;BME280;28218;53.342;-6.216;2024-02-14T02:46:45;100019.22;;;9.88;100.00
42591;BME280;28218;53.342;-6.216;2024-02-14T02:49:13;100013.00;;;9.89;100.00
42591;BME280;28218;53.342;-6.216;2024-02-14T02:51:42;100017.88;;;9.92;100.00
42591;BME280;28218;53.342;-6.216;2024-02-14T02:54:11;100013.25;;;9.94;100.00
42591;BME280;28218;53.342;-6.216;2024-02-14T02:56:40;100011.25;;;9.96;100.00
42591;BME280;28218;53.342;-6.216;2024-02-14T02:59:11;100014.53;;;9.98;100.00
42591;BME280;28218;53.342;-6.216;2024-02-14T03:01:40;100019.41;;;10.01;100.00
42591;BME280;28218;53.342;-6.216;2024-02-14T03:04:08;100014.81;;;10.03;100.00
42591;BME280;28218;53.342;-6.216;2024-02-14T03:06:36;100008.00;;;10.09;100.00
42591;BME280;28218;53.342;-6.216;2024-02-14T03:09:05;100010.28;;;10.12;100.00
42591;BME280;28218;53.342;-6.216;2024-02-14T03:11:34;100015.00;;;10.16;100.00
42591;BME280;28218;53.342;-6.216;2024-02-14T03:14:04;100005.91;;;10.19;100.00
42591;BME280;28218;53.342;-6.216;2024-02-14T03:16:33;100002.09;;;10.21;100.00
42591;BME280;28218;53.342;-6.216;2024-02-14T03:19:04;100001.91;;;10.23;100.00
42591;BME280;28218;53.342;-6.216;2024-02-14T03:21:33;100005.34;;;10.23;100.00
42591;BME280;28218;53.342;-6.216;2024-02-14T03:24:02;100003.56;;;10.24;100.00
42591;BME280;28218;53.342;-6.216;2024-02-14T03:26:32;100003.56;;;10.24;100.00
42591;BME280;28218;53.342;-6.216;2024-02-14T03:29:01;100003.38;;;10.26;100.00
42591;BME280;28218;53.342;-6.216;2024-02-14T03:31:34;100004.22;;;10.26;100.00
42591;BME280;28218;53.342;-6.216;2024-02-14T03:34:03;100005.84;;;10.27;100.00
42591;BME280;28218;53.342;-6.216;2024-02-14T03:36:32;100000.38;;;10.29;100.00
42591;BME280;28218;53.342;-6.216;2024-02-14T03:39:00;100008.06;;;10.30;100.00
42591;BME280;28218;53.342;-6.216;2024-02-14T03:41:31;100012.38;;;10.31;100.00
42591;BME280;28218;53.342;-6.216;2024-02-14T03:44:00;100001.19;;;10.29;100.00
42591;BME280;28218;53.342;-6.216;2024-02-14T03:46:30;100009.75;;;10.31;100.00
42591;BME280;28218;53.342;-6.216;2024-02-14T03:49:00;100013.34;;;10.30;100.00
42591;BME280;28218;53.342;-6.216;2024-02-14T03:51:29;100013.00;;;10.33;100.00
42591;BME280;28218;53.342;-6.216;2024-02-14T03:53:57;100018.44;;;10.32;100.00
42591;BME280;28218;53.342;-6.216;2024-02-14T03:56:26;100011.56;;;10.31;100.00
42591;BME280;28218;53.342;-6.216;2024-02-14T03:58:54;100009.75;;;10.31;100.00
42591;BME280;28218;53.342;-6.216;2024-02-14T04:01:22;100002.81;;;10.30;100.00
42591;BME280;28218;53.342;-6.216;2024-02-14T04:03:50;99999.38;;;10.30;100.00
42591;BME280;28218;53.342;-6.216;2024-02-14T04:06:20;99989.84;;;10.29;100.00
42591;BME280;28218;53.342;-6.216;2024-02-14T04:08:49;99995.91;;;10.29;100.00
42591;BME280;28218;53.342;-6.216;2024-02-14T04:11:17;99998.56;;;10.29;100.00
42591;BME280;28218;53.342;-6.216;2024-02-14T04:13:45;99983.56;;;10.30;100.00
42591;BME280;28218;53.342;-6.216;2024-02-14T04:16:13;99977.50;;;10.29;100.00
42591;BME280;28218;53.342;-6.216;2024-02-14T04:18:42;99975.25;;;10.26;100.00
42591;BME280;28218;53.342;-6.216;2024-02-14T04:21:11;99969.84;;;10.19;100.00
42591;BME280;28218;53.342;-6.216;2024-02-14T04:23:41;99963.16;;;10.17;100.00
42591;BME280;28218;53.342;-6.216;2024-02-14T04:26:09;99958.03;;;10.15;100.00
42591;BME280;28218;53.342;-6.216;2024-02-14T04:28:38;99951.34;;;10.13;100.00
42591;BME280;28218;53.342;-6.216;2024-02-14T04:31:08;99957.78;;;10.10;100.00
42591;BME280;28218;53.342;-6.216;2024-02-14T04:33:36;99955.59;;;10.14;100.00
42591;BME280;28218;53.342;-6.216;2024-02-14T04:36:05;99957.25;;;10.15;100.00
42591;BME280;28218;53.342;-6.216;2024-02-14T04:38:34;99955.25;;;10.17;100.00
42591;BME280;28218;53.342;-6.216;2024-02-14T04:41:04;99950.59;;;10.19;100.00
42591;BME280;28218;53.342;-6.216;2024-02-14T04:43:32;99964.41;;;10.21;100.00
42591;BME280;28218;53.342;-6.216;2024-02-14T04:46:00;99975.41;;;10.24;100.00
42591;BME280;28218;53.342;-6.216;2024-02-14T04:48:28;99974.84;;;10.29;100.00
42591;BME280;28218;53.342;-6.216;2024-02-14T04:50:57;99979.75;;;10.32;100.00
42591;BME280;28218;53.342;-6.216;2024-02-14T04:53:27;99982.66;;;10.37;100.00
42591;BME280;28218;53.342;-6.216;2024-02-14T04:55:56;99987.56;;;10.40;100.00
42591;BME280;28218;53.342;-6.216;2024-02-14T04:58:26;99989.44;;;10.46;100.00
42591;BME280;28218;53.342;-6.216;2024-02-14T05:00:54;99983.81;;;10.49;100.00
42591;BME280;28218;53.342;-6.216;2024-02-14T05:03:23;99973.91;;;10.52;100.00
42591;BME280;28218;53.342;-6.216;2024-02-14T05:05:52;99976.34;;;10.53;100.00
42591;BME280;28218;53.342;-6.216;2024-02-14T05:08:21;99979.63;;;10.55;100.00
42591;BME280;28218;53.342;-6.216;2024-02-14T05:10:49;99983.06;;;10.56;100.00
42591;BME280;28218;53.342;-6.216;2024-02-14T05:13:17;99983.28;;;10.54;100.00
42591;BME280;28218;53.342;-6.216;2024-02-14T05:15:48;99989.78;;;10.58;100.00
42591;BME280;28218;53.342;-6.216;2024-02-14T05:18:18;99996.69;;;10.59;100.00
42591;BME280;28218;53.342;-6.216;2024-02-14T05:20:46;100001.56;;;10.62;100.00
42591;BME280;28218;53.342;-6.216;2024-02-14T05:23:15;99995.50;;;10.62;100.00
42591;BME280;28218;53.342;-6.216;2024-02-14T05:25:44;99986.41;;;10.64;100.00
42591;BME280;28218;53.342;-6.216;2024-02-14T05:28:12;99993.13;;;10.67;100.00
42591;BME280;28218;53.342;-6.216;2024-02-14T05:30:41;99996.00;;;10.72;100.00
42591;BME280;28218;53.342;-6.216;2024-02-14T05:33:11;99983.84;;;10.71;100.00
42591;BME280;28218;53.342;-6.216;2024-02-14T05:35:39;99992.19;;;10.74;100.00
42591;BME280;28218;53.342;-6.216;2024-02-14T05:38:08;99997.91;;;10.78;100.00
42591;BME280;28218;53.342;-6.216;2024-02-14T05:40:36;99995.09;;;10.80;100.00
42591;BME280;28218;53.342;-6.216;2024-02-14T05:43:06;99988.00;;;10.80;100.00
42591;BME280;28218;53.342;-6.216;2024-02-14T05:45:35;99987.78;;;10.82;100.00
42591;BME280;28218;53.342;-6.216;2024-02-14T05:48:03;99985.16;;;10.82;100.00
42591;BME280;28218;53.342;-6.216;2024-02-14T05:50:33;99986.63;;;10.84;100.00
42591;BME280;28218;53.342;-6.216;2024-02-14T05:53:01;99986.63;;;10.84;100.00
42591;BME280;28218;53.342;-6.216;2024-02-14T05:55:29;99984.19;;;10.83;100.00
42591;BME280;28218;53.342;-6.216;2024-02-14T05:57:58;99986.00;;;10.82;100.00
42591;BME280;28218;53.342;-6.216;2024-02-14T06:00:27;99988.81;;;10.81;100.00
42591;BME280;28218;53.342;-6.216;2024-02-14T06:02:55;99986.38;;;10.79;100.00
42591;BME280;28218;53.342;-6.216;2024-02-14T06:05:23;99986.56;;;10.78;100.00
42591;BME280;28218;53.342;-6.216;2024-02-14T06:07:53;99987.53;;;10.77;100.00
42591;BME280;28218;53.342;-6.216;2024-02-14T06:10:22;99985.91;;;10.75;100.00
42591;BME280;28218;53.342;-6.216;2024-02-14T06:12:52;99987.72;;;10.75;100.00
42591;BME280;28218;53.342;-6.216;2024-02-14T06:15:20;99985.31;;;10.73;100.00
42591;BME280;28218;53.342;-6.216;2024-02-14T06:17:48;99983.84;;;10.71;100.00
42591;BME280;28218;53.342;-6.216;2024-02-14T06:20:17;99985.84;;;10.69;100.00
42591;BME280;28218;53.342;-6.216;2024-02-14T06:22:46;99991.13;;;10.69;100.00
42591;BME280;28218;53.342;-6.216;2024-02-14T06:25:28;99980.13;;;10.65;100.00
42591;BME280;28218;53.342;-6.216;2024-02-14T06:27:57;99976.88;;;10.63;100.00
42591;BME280;28218;53.342;-6.216;2024-02-14T06:30:25;99975.06;;;10.64;100.00
42591;BME280;28218;53.342;-6.216;2024-02-14T06:32:58;99977.06;;;10.62;100.00
42591;BME280;28218;53.342;-6.216;2024-02-14T06:35:29;99976.25;;;10.61;100.00
42591;BME280;28218;53.342;-6.216;2024-02-14T06:37:58;99969.34;;;10.60;100.00
42591;BME280;28218;53.342;-6.216;2024-02-14T06:40:32;99969.53;;;10.59;100.00
42591;BME280;28218;53.342;-6.216;2024-02-14T06:43:01;99971.34;;;10.58;100.00
42591;BME280;28218;53.342;-6.216;2024-02-14T06:45:29;99968.63;;;10.52;100.00
42591;BME280;28218;53.342;-6.216;2024-02-14T06:47:57;99970.47;;;10.51;100.00
42591;BME280;28218;53.342;-6.216;2024-02-14T06:50:26;99966.19;;;10.50;100.00
42591;BME280;28218;53.342;-6.216;2024-02-14T06:52:56;99972.28;;;10.51;100.00
42591;BME280;28218;53.342;-6.216;2024-02-14T06:55:26;99977.34;;;10.52;100.00
42591;BME280;28218;53.342;-6.216;2024-02-14T06:57:57;99972.28;;;10.51;100.00
42591;BME280;28218;53.342;-6.216;2024-02-14T07:00:25;99980.34;;;10.49;100.00
42591;BME280;28218;53.342;-6.216;2024-02-14T07:02:55;99979.53;;;10.48;100.00
42591;BME280;28218;53.342;-6.216;2024-02-14T07:05:23;99971.81;;;10.47;100.00
42591;BME280;28218;53.342;-6.216;2024-02-14T07:07:53;99966.91;;;10.44;100.00
42591;BME280;28218;53.342;-6.216;2024-02-14T07:10:21;99968.13;;;10.41;100.00
42591;BME280;28218;53.342;-6.216;2024-02-14T07:12:49;99976.59;;;10.37;100.00
42591;BME280;28218;53.342;-6.216;2024-02-14T07:15:19;99965.22;;;10.36;100.00
42591;BME280;28218;53.342;-6.216;2024-02-14T07:17:47;99972.47;;;10.34;100.00
42591;BME280;28218;53.342;-6.216;2024-02-14T07:20:16;99967.41;;;10.33;100.00
42591;BME280;28218;53.342;-6.216;2024-02-14T07:22:44;99966.97;;;10.29;100.00
42591;BME280;28218;53.342;-6.216;2024-02-14T07:25:14;99962.50;;;10.30;100.00
42591;BME280;28218;53.342;-6.216;2024-02-14T07:27:42;99960.69;;;10.30;100.00
42591;BME280;28218;53.342;-6.216;2024-02-14T07:30:13;99958.25;;;10.29;100.00
42591;BME280;28218;53.342;-6.216;2024-02-14T07:32:43;99959.88;;;10.30;100.00
42591;BME280;28218;53.342;-6.216;2024-02-14T07:35:11;99959.88;;;10.30;100.00
42591;BME280;28218;53.342;-6.216;2024-02-14T07:37:41;99968.59;;;10.30;100.00
42591;BME280;28218;53.342;-6.216;2024-02-14T07:40:10;99970.41;;;10.30;100.00
42591;BME280;28218;53.342;-6.216;2024-02-14T07:42:42;99972.06;;;10.31;100.00
42591;BME280;28218;53.342;-6.216;2024-02-14T07:45:10;99974.50;;;10.32;100.00
42591;BME280;28218;53.342;-6.216;2024-02-14T07:47:39;99985.22;;;10.31;100.00
42591;BME280;28218;53.342;-6.216;2024-02-14T07:50:09;99981.59;;;10.32;100.00
42591;BME280;28218;53.342;-6.216;2024-02-14T07:52:41;99991.94;;;10.33;100.00
42591;BME280;28218;53.342;-6.216;2024-02-14T07:55:10;99998.19;;;10.32;100.00
42591;BME280;28218;53.342;-6.216;2024-02-14T07:57:39;99987.47;;;10.34;100.00
42591;BME280;28218;53.342;-6.216;2024-02-14T08:00:09;99989.28;;;10.33;100.00
42591;BME280;28218;53.342;-6.216;2024-02-14T08:02:39;99989.94;;;10.35;100.00
42591;BME280;28218;53.342;-6.216;2024-02-14T08:05:07;99998.66;;;10.36;100.00
42591;BME280;28218;53.342;-6.216;2024-02-14T08:07:37;100007.81;;;10.40;100.00
42591;BME280;28218;53.342;-6.216;2024-02-14T08:10:06;99992.84;;;10.40;100.00
42591;BME280;28218;53.342;-6.216;2024-02-14T08:12:34;100002.97;;;10.43;100.00
42591;BME280;28218;53.342;-6.216;2024-02-14T08:15:03;99999.38;;;10.44;100.00
42591;BME280;28218;53.342;-6.216;2024-02-14T08:17:33;100011.16;;;10.48;100.00
42591;BME280;28218;53.342;-6.216;2024-02-14T08:20:04;100016.88;;;10.52;100.00
42591;BME280;28218;53.342;-6.216;2024-02-14T08:22:32;100028.06;;;10.54;100.00
42591;BME280;28218;53.342;-6.216;2024-02-14T08:25:02;100028.47;;;10.58;100.00
42591;BME280;28218;53.342;-6.216;2024-02-14T08:27:31;100032.78;;;10.59;100.00
42591;BME280;28218;53.342;-6.216;2024-02-14T08:29:59;100036.03;;;10.61;100.00
42591;BME280;28218;53.342;-6.216;2024-02-14T08:32:27;100026.09;;;10.63;100.00
42591;BME280;28218;53.342;-6.216;2024-02-14T08:34:55;100031.00;;;10.66;100.00
42591;BME280;28218;53.342;-6.216;2024-02-14T08:37:25;100021.94;;;10.68;100.00
42591;BME280;28218;53.342;-6.216;2024-02-14T08:39:54;100032.28;;;10.70;100.00
42591;BME280;28218;53.342;-6.216;2024-02-14T08:42:23;100034.91;;;10.70;100.00
42591;BME280;28218;53.342;-6.216;2024-02-14T08:44:51;100039.81;;;10.73;100.00
42591;BME280;28218;53.342;-6.216;2024-02-14T08:47:20;100028.72;;;10.78;100.00
42591;BME280;28218;53.342;-6.216;2024-02-14T08:49:48;100022.44;;;10.79;100.00
42591;BME280;28218;53.342;-6.216;2024-02-14T08:52:16;100018.59;;;10.81;100.00
42591;BME280;28218;53.342;-6.216;2024-02-14T08:54:45;100023.50;;;10.84;100.00
42591;BME280;28218;53.342;-6.216;2024-02-14T08:57:16;100032.03;;;10.86;100.00
42591;BME280;28218;53.342;-6.216;2024-02-14T08:59:46;100034.09;;;10.91;100.00
42591;BME280;28218;53.342;-6.216;2024-02-14T09:02:16;100047.75;;;10.94;100.00
42591;BME280;28218;53.342;-6.216;2024-02-14T09:04:44;100053.66;;;10.96;100.00
42591;BME280;28218;53.342;-6.216;2024-02-14T09:07:13;100057.72;;;10.99;100.00
42591;BME280;28218;53.342;-6.216;2024-02-14T09:09:42;100057.53;;;11.00;100.00
42591;BME280;28218;53.342;-6.216;2024-02-14T09:12:11;100064.25;;;11.03;100.00
42591;BME280;28218;53.342;-6.216;2024-02-14T09:14:39;100070.78;;;11.07;100.00
42591;BME280;28218;53.342;-6.216;2024-02-14T09:17:09;100072.22;;;11.10;100.00
42591;BME280;28218;53.342;-6.216;2024-02-14T09:19:37;100071.88;;;11.13;100.00
42591;BME280;28218;53.342;-6.216;2024-02-14T09:22:06;100072.31;;;11.16;100.00
42591;BME280;28218;53.342;-6.216;2024-02-14T09:24:34;100072.75;;;11.20;100.00
42591;BME280;28218;53.342;-6.216;2024-02-14T09:27:03;100078.84;;;11.20;100.00
42591;BME280;28218;53.342;-6.216;2024-02-14T09:29:32;100078.44;;;11.23;100.00
42591;BME280;28218;53.342;-6.216;2024-02-14T09:32:01;100077.88;;;11.28;100.00
42591;BME280;28218;53.342;-6.216;2024-02-14T09:34:31;100072.25;;;11.31;100.00
42591;BME280;28218;53.342;-6.216;2024-02-14T09:37:00;100072.69;;;11.35;100.00
42591;BME280;28218;53.342;-6.216;2024-02-14T09:39:28;100076.97;;;11.36;100.00
42591;BME280;28218;53.342;-6.216;2024-02-14T09:41:58;100082.84;;;11.38;100.00
42591;BME280;28218;53.342;-6.216;2024-02-14T09:44:28;100075.38;;;11.41;100.00
42591;BME280;28218;53.342;-6.216;2024-02-14T09:46:56;100071.38;;;11.45;100.00
42591;BME280;28218;53.342;-6.216;2024-02-14T09:49:26;100071.81;;;11.49;100.00
42591;BME280;28218;53.342;-6.216;2024-02-14T09:51:58;100083.41;;;11.55;100.00
42591;BME280;28218;53.342;-6.216;2024-02-14T09:54:29;100085.69;;;11.58;100.00
42591;BME280;28218;53.342;-6.216;2024-02-14T09:57:02;100091.59;;;11.60;100.00
42591;BME280;28218;53.342;-6.216;2024-02-14T09:59:32;100084.56;;;11.67;100.00
42591;BME280;28218;53.342;-6.216;2024-02-14T10:02:01;100094.69;;;11.70;100.00
42591;BME280;28218;53.342;-6.216;2024-02-14T10:04:29;100099.97;;;11.70;100.00
42591;BME280;28218;53.342;-6.216;2024-02-14T10:06:58;100097.16;;;11.71;100.00
42591;BME280;28218;53.342;-6.216;2024-02-14T10:09:28;100101.03;;;11.75;100.00
42591;BME280;28218;53.342;-6.216;2024-02-14T10:11:58;100107.78;;;11.78;100.00
42591;BME280;28218;53.342;-6.216;2024-02-14T10:14:26;100113.25;;;11.76;100.00
42591;BME280;28218;53.342;-6.216;2024-02-14T10:16:55;100095.19;;;11.80;100.00
42591;BME280;28218;53.342;-6.216;2024-02-14T10:19:23;100095.66;;;11.84;100.00
42591;BME280;28218;53.342;-6.216;2024-02-14T10:21:55;100108.72;;;11.92;100.00
42591;BME280;28218;53.342;-6.216;2024-02-14T10:24:26;100104.88;;;11.94;100.00
42591;BME280;28218;53.342;-6.216;2024-02-14T10:26:55;100111.03;;;12.01;100.00
42591;BME280;28218;53.342;-6.216;2024-02-14T10:29:25;100113.09;;;12.06;100.00
42591;BME280;28218;53.342;-6.216;2024-02-14T10:31:53;100118.81;;;12.10;100.00
42591;BME280;28218;53.342;-6.216;2024-02-14T10:34:25;100114.97;;;12.12;100.00
42591;BME280;28218;53.342;-6.216;2024-02-14T10:36:56;100117.47;;;12.20;100.00
42591;BME280;28218;53.342;-6.216;2024-02-14T10:39:29;100124.44;;;12.28;100.00
42591;BME280;28218;53.342;-6.216;2024-02-14T10:41:59;100124.47;;;12.35;100.00
42591;BME280;28218;53.342;-6.216;2024-02-14T10:44:29;100122.47;;;12.43;100.00
42591;BME280;28218;53.342;-6.216;2024-02-14T10:47:00;100136.34;;;12.52;100.00
42591;BME280;28218;53.342;-6.216;2024-02-14T10:49:30;100133.13;;;12.57;100.00
42591;BME280;28218;53.342;-6.216;2024-02-14T10:51:59;100118.91;;;12.58;100.00
42591;BME280;28218;53.342;-6.216;2024-02-14T10:54:35;100120.75;;;12.64;100.00
42591;BME280;28218;53.342;-6.216;2024-02-14T10:57:05;100122.81;;;12.75;100.00
42591;BME280;28218;53.342;-6.216;2024-02-14T10:59:43;100117.59;;;12.88;100.00
42591;BME280;28218;53.342;-6.216;2024-02-14T11:02:12;100122.94;;;13.01;100.00
42591;BME280;28218;53.342;-6.216;2024-02-14T11:04:41;100118.50;;;13.09;100.00
42591;BME280;28218;53.342;-6.216;2024-02-14T11:07:10;100126.66;;;13.14;100.00
42591;BME280;28218;53.342;-6.216;2024-02-14T11:09:41;100135.41;;;13.14;100.00
42591;BME280;28218;53.342;-6.216;2024-02-14T11:12:10;100138.66;;;13.16;100.00
42591;BME280;28218;53.342;-6.216;2024-02-14T11:14:42;100129.28;;;13.14;100.00
42591;BME280;28218;53.342;-6.216;2024-02-14T11:17:12;100126.44;;;13.15;100.00
42591;BME280;28218;53.342;-6.216;2024-02-14T11:19:41;100128.47;;;13.13;100.00
42591;BME280;28218;53.342;-6.216;2024-02-14T11:22:10;100134.53;;;13.07;100.00
42591;BME280;28218;53.342;-6.216;2024-02-14T11:24:41;100133.72;;;13.07;100.00
42591;BME280;28218;53.342;-6.216;2024-02-14T11:27:10;100122.34;;;13.06;100.00
42591;BME280;28218;53.342;-6.216;2024-02-14T11:29:59;100118.50;;;13.09;100.00
42591;BME280;28218;53.342;-6.216;2024-02-14T11:32:28;100133.78;;;13.13;100.00
42591;BME280;28218;53.342;-6.216;2024-02-14T11:34:57;100120.34;;;13.15;100.00
42591;BME280;28218;53.342;-6.216;2024-02-14T11:37:29;100116.28;;;13.19;100.00
42591;BME280;28218;53.342;-6.216;2024-02-14T11:40:00;100110.59;;;13.22;100.00
42591;BME280;28218;53.342;-6.216;2024-02-14T11:42:29;100115.13;;;13.28;100.00
42591;BME280;28218;53.342;-6.216;2024-02-14T11:44:57;100108.38;;;13.25;100.00
42591;BME280;28218;53.342;-6.216;2024-02-14T11:47:26;100106.75;;;13.24;100.00
42591;BME280;28218;53.342;-6.216;2024-02-14T11:49:55;100111.59;;;13.21;100.00
42591;BME280;28218;53.342;-6.216;2024-02-14T11:52:25;100115.25;;;13.20;100.00
42591;BME280;28218;53.342;-6.216;2024-02-14T11:54:54;100119.09;;;13.17;100.00
42591;BME280;28218;53.342;-6.216;2024-02-14T11:57:25;100115.66;;;13.17;100.00
42591;BME280;28218;53.342;-6.216;2024-02-14T11:59:54;100119.31;;;13.16;100.00
42591;BME280;28218;53.342;-6.216;2024-02-14T12:02:22;100124.00;;;13.14;100.00
42591;BME280;28218;53.342;-6.216;2024-02-14T12:04:51;100118.72;;;13.14;100.00
42591;BME280;28218;53.342;-6.216;2024-02-14T12:07:21;100123.38;;;13.12;100.00
42591;BME280;28218;53.342;-6.216;2024-02-14T12:09:50;100128.06;;;13.10;100.00
42591;BME280;28218;53.342;-6.216;2024-02-14T12:12:18;100127.63;;;13.06;100.00
42591;BME280;28218;53.342;-6.216;2024-02-14T12:14:51;100122.94;;;13.01;100.00
42591;BME280;28218;53.342;-6.216;2024-02-14T12:17:20;100138.41;;;13.04;100.00
42591;BME280;28218;53.342;-6.216;2024-02-14T12:19:49;100145.94;;;13.08;100.00
42591;BME280;28218;53.342;-6.216;2024-02-14T12:22:19;100139.84;;;13.07;100.00
42591;BME280;28218;53.342;-6.216;2024-02-14T12:24:48;100139.44;;;13.10;100.00
42591;BME280;28218;53.342;-6.216;2024-02-14T12:27:17;100137.00;;;13.09;100.00
42591;BME280;28218;53.342;-6.216;2024-02-14T12:29:47;100131.50;;;13.10;100.00
42591;BME280;28218;53.342;-6.216;2024-02-14T12:32:17;100126.44;;;13.09;100.00
42591;BME280;28218;53.342;-6.216;2024-02-14T12:34:45;100123.97;;;13.07;100.00
42591;BME280;28218;53.342;-6.216;2024-02-14T12:37:14;100129.47;;;13.05;100.00
42591;BME280;28218;53.342;-6.216;2024-02-14T12:39:42;100125.78;;;13.07;100.00
42591;BME280;28218;53.342;-6.216;2024-02-14T12:42:10;100123.34;;;13.05;100.00
42591;BME280;28218;53.342;-6.216;2024-02-14T12:44:38;100118.66;;;13.00;100.00
42591;BME280;28218;53.342;-6.216;2024-02-14T12:47:08;100125.38;;;13.03;100.00